createdAt,value
2018-11-26T00:00:05.073Z,44.30
2018-11-26T00:00:52.951Z,42.55
2018-11-26T00:01:41.743Z,45.60
2018-11-26T00:02:29.867Z,50.55
2018-11-26T00:03:18.006Z,45.85
2018-11-26T00:04:05.874Z,45.52
2018-11-26T00:04:53.510Z,46.75
2018-11-26T00:05:41.346Z,45.85
2018-11-26T00:06:29.082Z,48.73
2018-11-26T00:07:17.077Z,44.27
2018-11-26T00:08:04.801Z,51.25
2018-11-26T00:08:52.853Z,45.63
2018-11-26T00:09:40.809Z,49.27
2018-11-26T00:11:17.767Z,48.70
2018-11-26T00:12:05.706Z,46.75
2018-11-26T00:12:54.094Z,47.70
2018-11-26T00:13:42.254Z,48.08
2018-11-26T00:14:29.958Z,47.43
2018-11-26T00:15:17.590Z,49.38
2018-11-26T00:16:05.726Z,45.67
2018-11-26T00:16:53.964Z,48.38
2018-11-26T00:17:41.790Z,48.87
2018-11-26T00:18:29.314Z,47.65
2018-11-26T00:19:17.375Z,49.58
2018-11-26T00:20:05.657Z,50.52
2018-11-26T00:20:53.452Z,48.38
2018-11-26T00:21:41.511Z,49.15
2018-11-26T00:22:29.261Z,47.55
2018-11-26T00:23:16.997Z,48.40
2018-11-26T00:24:05.513Z,46.75
2018-11-26T00:24:53.529Z,44.48
2018-11-26T00:25:41.141Z,49.18
2018-11-26T00:26:29.352Z,47.05
2018-11-26T00:27:17.343Z,48.58
2018-11-26T00:28:05.422Z,47.65
2018-11-26T00:28:52.867Z,47.40
2018-11-26T00:29:40.942Z,50.03
2018-11-26T00:30:28.638Z,48.48
2018-11-26T00:31:16.594Z,49.13
2018-11-26T00:32:04.358Z,49.33
2018-11-26T00:32:51.895Z,46.77
2018-11-26T00:33:39.809Z,50.10
2018-11-26T00:34:27.571Z,45.85
2018-11-26T00:35:15.780Z,46.13
2018-11-26T00:36:03.808Z,42.73
2018-11-26T00:36:51.846Z,45.85
2018-11-26T00:37:39.637Z,48.05
2018-11-26T00:38:27.209Z,49.48
2018-11-26T00:39:14.898Z,43.55
2018-11-26T00:40:02.538Z,48.85
2018-11-26T00:40:50.203Z,46.25
2018-11-26T00:41:37.759Z,44.13
2018-11-26T00:42:25.273Z,44.50
2018-11-26T00:43:13.671Z,44.35
2018-11-26T00:44:01.426Z,49.10
2018-11-26T00:44:49.443Z,46.88
2018-11-26T00:45:36.951Z,45.00
2018-11-26T00:46:24.585Z,47.08
2018-11-26T00:47:12.639Z,50.70
2018-11-26T00:48:00.795Z,44.03
2018-11-26T00:48:49.298Z,45.73
2018-11-26T00:49:37.550Z,43.08
2018-11-26T00:50:25.329Z,43.45
2018-11-26T00:51:12.909Z,46.55
2018-11-26T00:52:00.593Z,47.13
2018-11-26T00:52:48.373Z,46.18
2018-11-26T00:53:35.956Z,43.20
2018-11-26T00:54:23.670Z,44.50
2018-11-26T00:55:12.078Z,40.65
2018-11-26T00:55:59.903Z,44.38
2018-11-26T00:56:47.410Z,41.45
2018-11-26T00:57:35.444Z,40.55
2018-11-26T00:58:23.653Z,46.42
2018-11-26T00:59:11.659Z,42.58
2018-11-26T00:59:59.366Z,40.35
2018-11-26T01:00:47.136Z,39.67
2018-11-26T01:01:35.448Z,44.42
2018-11-26T01:02:23.163Z,46.08
2018-11-26T01:03:10.994Z,43.78
2018-11-26T01:03:58.495Z,41.42
2018-11-26T01:04:46.111Z,42.33
2018-11-26T01:05:39.084Z,45.73
2018-11-26T01:06:26.885Z,41.53
2018-11-26T01:07:14.550Z,41.73
2018-11-26T01:08:02.592Z,39.75
2018-11-26T01:08:50.175Z,40.90
2018-11-26T01:09:38.452Z,42.13
2018-11-26T01:10:26.158Z,42.13
2018-11-26T01:11:13.966Z,42.10
2018-11-26T01:12:01.798Z,43.00
2018-11-26T01:12:50.109Z,38.90
2018-11-26T01:13:37.826Z,41.28
2018-11-26T01:14:25.718Z,37.25
2018-11-26T01:15:13.235Z,39.58
2018-11-26T01:16:01.009Z,43.50
2018-11-26T01:16:48.766Z,38.60
2018-11-26T01:17:36.423Z,37.88
2018-11-26T01:18:24.045Z,41.50
2018-11-26T01:19:11.974Z,37.75
2018-11-26T01:19:59.915Z,38.15
2018-11-26T01:20:47.538Z,37.90
2018-11-26T01:21:35.698Z,38.15
2018-11-26T01:22:23.603Z,38.73
2018-11-26T01:23:11.288Z,44.20
2018-11-26T01:23:58.981Z,37.53
2018-11-26T01:24:46.706Z,36.30
2018-11-26T01:25:34.357Z,39.95
2018-11-26T01:26:21.876Z,38.78
2018-11-26T01:27:09.986Z,41.60
2018-11-26T01:27:58.281Z,40.52
2018-11-26T01:28:46.085Z,38.50
2018-11-26T01:29:33.634Z,38.45
2018-11-26T01:30:21.462Z,39.60
2018-11-26T01:31:08.948Z,35.65
2018-11-26T01:31:56.430Z,36.10
2018-11-26T01:32:44.161Z,36.70
2018-11-26T01:33:31.866Z,40.35
2018-11-26T01:34:19.429Z,34.67
2018-11-26T01:35:07.987Z,36.28
2018-11-26T01:35:55.914Z,37.45
2018-11-26T01:36:43.595Z,37.05
2018-11-26T01:37:31.575Z,39.53
2018-11-26T01:38:19.735Z,34.33
2018-11-26T01:39:08.997Z,36.13
2018-11-26T01:39:57.062Z,37.55
2018-11-26T01:40:53.317Z,40.17
2018-11-26T01:41:41.603Z,38.75
2018-11-26T01:42:29.690Z,42.67
2018-11-26T01:43:17.343Z,40.43
2018-11-26T01:44:04.989Z,36.55
2018-11-26T01:44:52.829Z,37.60
2018-11-26T01:45:40.917Z,39.48
2018-11-26T01:46:28.684Z,36.28
2018-11-26T01:47:16.098Z,37.58
2018-11-26T01:48:03.658Z,35.55
2018-11-26T01:48:51.349Z,35.63
2018-11-26T01:49:39.399Z,36.65
2018-11-26T01:50:26.886Z,34.53
2018-11-26T01:51:14.898Z,34.95
2018-11-26T01:52:02.642Z,35.60
2018-11-26T01:52:50.235Z,34.80
2018-11-26T01:53:37.991Z,36.30
2018-11-26T01:54:25.540Z,37.33
2018-11-26T01:55:13.737Z,39.53
2018-11-26T01:56:01.450Z,36.90
2018-11-26T01:56:49.814Z,34.40
2018-11-26T01:57:38.658Z,36.15
2018-11-26T01:58:26.695Z,37.48
2018-11-26T01:59:14.693Z,38.38
2018-11-26T02:00:02.224Z,42.17
2018-11-26T02:00:50.301Z,32.73
2018-11-26T02:01:37.890Z,35.95
2018-11-26T02:02:25.348Z,35.05
2018-11-26T02:03:13.134Z,37.15
2018-11-26T02:04:00.668Z,39.83
2018-11-26T02:04:48.661Z,40.52
2018-11-26T02:05:36.705Z,38.23
2018-11-26T02:06:24.659Z,36.00
2018-11-26T02:07:12.911Z,42.03
2018-11-26T02:08:00.547Z,42.27
2018-11-26T02:08:48.295Z,37.28
2018-11-26T02:09:35.972Z,39.48
2018-11-26T02:10:23.721Z,40.12
2018-11-26T02:11:11.440Z,38.95
2018-11-26T02:11:59.386Z,39.30
2018-11-26T02:12:46.973Z,40.28
2018-11-26T02:13:34.813Z,41.08
2018-11-26T02:14:22.440Z,39.90
2018-11-26T02:15:12.573Z,40.70
2018-11-26T02:16:00.242Z,38.38
2018-11-26T02:16:47.844Z,41.95
2018-11-26T02:17:35.475Z,35.05
2018-11-26T02:18:23.587Z,40.20
2018-11-26T02:19:11.401Z,39.60
2018-11-26T02:19:59.098Z,40.05
2018-11-26T02:20:46.689Z,39.88
2018-11-26T02:21:34.794Z,36.73
2018-11-26T02:22:23.093Z,37.73
2018-11-26T02:23:10.878Z,40.40
2018-11-26T02:23:58.503Z,38.55
2018-11-26T02:24:46.491Z,39.03
2018-11-26T02:25:34.082Z,37.42
2018-11-26T02:26:22.125Z,40.12
2018-11-26T02:27:10.062Z,37.83
2018-11-26T02:27:57.841Z,37.48
2018-11-26T02:28:45.327Z,36.95
2018-11-26T02:29:32.774Z,38.58
2018-11-26T02:30:20.385Z,42.38
2018-11-26T02:31:08.583Z,37.98
2018-11-26T02:31:56.924Z,36.08
2018-11-26T02:32:44.654Z,37.10
2018-11-26T02:33:32.222Z,41.23
2018-11-26T02:34:20.085Z,42.95
2018-11-26T02:35:08.006Z,39.98
2018-11-26T02:35:55.763Z,41.37
2018-11-26T02:36:43.474Z,41.25
2018-11-26T02:37:31.024Z,41.05
2018-11-26T02:38:18.653Z,41.88
2018-11-26T02:39:07.633Z,37.60
2018-11-26T02:39:55.328Z,35.83
2018-11-26T02:40:43.099Z,38.83
2018-11-26T02:41:30.592Z,38.75
2018-11-26T02:42:18.165Z,39.42
2018-11-26T02:43:06.124Z,37.73
2018-11-26T02:43:54.105Z,42.70
2018-11-26T02:44:42.142Z,37.63
2018-11-26T02:45:30.142Z,37.42
2018-11-26T02:46:18.002Z,38.20
2018-11-26T02:47:05.823Z,37.30
2018-11-26T02:47:53.757Z,36.83
2018-11-26T02:48:41.701Z,37.38
2018-11-26T02:49:29.725Z,39.53
2018-11-26T02:50:17.233Z,39.70
2018-11-26T02:51:04.922Z,41.65
2018-11-26T02:51:52.660Z,40.43
2018-11-26T02:52:40.167Z,44.58
2018-11-26T02:53:27.793Z,41.10
2018-11-26T02:54:15.231Z,40.92
2018-11-26T02:55:02.826Z,40.43
2018-11-26T02:55:50.565Z,40.58
2018-11-26T02:56:38.743Z,42.65
2018-11-26T02:57:26.837Z,39.70
2018-11-26T02:58:14.584Z,39.40
2018-11-26T02:59:02.693Z,37.55
2018-11-26T02:59:50.470Z,39.40
2018-11-26T03:00:38.387Z,38.08
2018-11-26T03:01:26.359Z,37.88
2018-11-26T03:02:14.245Z,39.30
2018-11-26T03:03:01.823Z,42.55
2018-11-26T03:03:49.394Z,39.25
2018-11-26T03:04:37.268Z,42.90
2018-11-26T03:05:29.101Z,39.80
2018-11-26T03:06:17.187Z,43.73
2018-11-26T03:07:05.954Z,40.52
2018-11-26T03:07:53.894Z,39.63
2018-11-26T03:08:41.532Z,38.08
2018-11-26T03:09:29.886Z,42.80
2018-11-26T03:10:17.675Z,40.03
2018-11-26T03:11:05.826Z,38.90
2018-11-26T03:11:53.270Z,41.45
2018-11-26T03:12:40.905Z,39.27
2018-11-26T03:13:28.515Z,39.92
2018-11-26T03:14:16.009Z,41.85
2018-11-26T03:15:03.643Z,36.98
2018-11-26T03:15:51.721Z,38.02
2018-11-26T03:16:39.611Z,40.10
2018-11-26T03:17:27.113Z,41.18
2018-11-26T03:18:15.172Z,42.65
2018-11-26T03:19:03.308Z,42.10
2018-11-26T03:19:51.753Z,38.98
2018-11-26T03:20:39.438Z,37.35
2018-11-26T03:21:27.409Z,40.23
2018-11-26T03:22:15.010Z,43.25
2018-11-26T03:23:03.103Z,41.90
2018-11-26T03:23:50.869Z,41.18
2018-11-26T03:24:38.354Z,38.88
2018-11-26T03:25:26.196Z,37.58
2018-11-26T03:26:14.211Z,43.68
2018-11-26T03:27:01.724Z,39.75
2018-11-26T03:27:49.171Z,40.25
2018-11-26T03:28:36.818Z,42.75
2018-11-26T03:29:24.467Z,44.67
2018-11-26T03:30:14.700Z,39.10
2018-11-26T03:31:02.883Z,39.15
2018-11-26T03:31:50.575Z,39.05
2018-11-26T03:32:38.477Z,41.88
2018-11-26T03:33:26.332Z,41.83
2018-11-26T03:34:13.870Z,44.53
2018-11-26T03:35:01.566Z,41.15
2018-11-26T03:35:49.168Z,42.62
2018-11-26T03:36:36.749Z,39.67
2018-11-26T03:37:24.302Z,47.50
2018-11-26T03:38:15.757Z,44.70
2018-11-26T03:39:04.830Z,41.02
2018-11-26T03:39:52.531Z,42.80
2018-11-26T03:40:40.282Z,46.13
2018-11-26T03:41:28.465Z,42.25
2018-11-26T03:42:16.538Z,46.98
2018-11-26T03:43:04.250Z,44.27
2018-11-26T03:43:52.027Z,44.50
2018-11-26T03:44:39.679Z,45.80
2018-11-26T03:45:27.187Z,44.27
2018-11-26T03:46:14.919Z,41.65
2018-11-26T03:47:02.833Z,40.45
2018-11-26T03:47:50.822Z,42.58
2018-11-26T03:48:38.358Z,48.50
2018-11-26T03:49:25.896Z,46.05
2018-11-26T03:50:14.707Z,42.43
2018-11-26T03:51:02.475Z,41.55
2018-11-26T03:51:49.940Z,47.30
2018-11-26T03:52:37.491Z,41.15
2018-11-26T03:53:25.211Z,38.88
2018-11-26T03:54:12.858Z,40.85
2018-11-26T03:55:01.029Z,41.28
2018-11-26T03:55:49.354Z,47.03
2018-11-26T03:56:37.040Z,42.30
2018-11-26T03:57:24.768Z,44.58
2018-11-26T03:58:12.430Z,46.50
2018-11-26T03:59:00.055Z,44.38
2018-11-26T03:59:47.627Z,46.92
2018-11-26T04:00:35.574Z,41.10
2018-11-26T04:01:23.170Z,45.08
2018-11-26T04:02:10.690Z,49.93
2018-11-26T04:02:58.889Z,45.17
2018-11-26T04:03:46.655Z,42.83
2018-11-26T04:04:34.115Z,45.52
2018-11-26T04:05:21.674Z,45.43
2018-11-26T04:06:09.699Z,43.98
2018-11-26T04:06:57.385Z,44.95
2018-11-26T04:07:45.007Z,45.65
2018-11-26T04:08:32.668Z,42.20
2018-11-26T04:09:20.518Z,43.15
2018-11-26T04:10:14.817Z,48.92
2018-11-26T04:11:02.323Z,43.70
2018-11-26T04:11:49.844Z,42.58
2018-11-26T04:12:37.835Z,43.92
2018-11-26T04:13:25.305Z,43.87
2018-11-26T04:14:13.013Z,42.90
2018-11-26T04:15:00.455Z,47.88
2018-11-26T04:15:48.494Z,44.05
2018-11-26T04:16:36.078Z,41.20
2018-11-26T04:17:23.783Z,43.00
2018-11-26T04:18:11.634Z,47.15
2018-11-26T04:18:59.406Z,43.98
2018-11-26T04:19:46.963Z,46.15
2018-11-26T04:20:34.904Z,42.65
2018-11-26T04:21:22.856Z,43.45
2018-11-26T04:22:10.834Z,44.50
2018-11-26T04:22:58.337Z,42.80
2018-11-26T04:23:45.932Z,45.12
2018-11-26T04:24:33.422Z,45.80
2018-11-26T04:25:20.835Z,44.08
2018-11-26T04:26:08.653Z,42.67
2018-11-26T04:26:56.671Z,43.00
2018-11-26T04:27:44.269Z,46.30
2018-11-26T04:28:31.785Z,44.93
2018-11-26T04:29:19.490Z,48.35
2018-11-26T04:30:09.907Z,46.15
2018-11-26T04:30:57.719Z,43.25
2018-11-26T04:31:45.616Z,43.87
2018-11-26T04:32:33.199Z,46.70
2018-11-26T04:33:20.819Z,43.83
2018-11-26T04:34:08.377Z,44.08
2018-11-26T04:34:56.367Z,42.53
2018-11-26T04:35:43.931Z,42.62
2018-11-26T04:36:31.758Z,41.35
2018-11-26T04:37:19.719Z,40.35
2018-11-26T04:38:07.328Z,44.03
2018-11-26T04:38:55.324Z,47.98
2018-11-26T04:39:42.794Z,42.40
2018-11-26T04:40:30.551Z,44.75
2018-11-26T04:41:18.069Z,47.35
2018-11-26T04:42:05.561Z,46.65
2018-11-26T04:42:53.917Z,43.33
2018-11-26T04:43:41.949Z,41.58
2018-11-26T04:44:29.764Z,40.80
2018-11-26T04:45:17.507Z,42.50
2018-11-26T04:46:05.098Z,45.03
2018-11-26T04:46:53.611Z,43.78
2018-11-26T04:47:41.586Z,42.83
2018-11-26T04:48:29.034Z,40.58
2018-11-26T04:49:16.703Z,43.92
2018-11-26T04:50:04.702Z,44.65
2018-11-26T04:50:52.439Z,44.58
2018-11-26T04:51:39.961Z,42.60
2018-11-26T04:52:27.487Z,41.10
2018-11-26T04:53:15.070Z,42.93
2018-11-26T04:54:02.561Z,46.68
2018-11-26T04:54:50.055Z,40.98
2018-11-26T04:55:37.691Z,45.70
2018-11-26T04:56:26.637Z,46.42
2018-11-26T04:57:14.550Z,41.80
2018-11-26T04:58:02.414Z,48.05
2018-11-26T04:58:50.072Z,42.27
2018-11-26T04:59:37.632Z,44.42
2018-11-26T05:01:23.111Z,47.75
2018-11-26T05:02:10.782Z,43.00
2018-11-26T05:02:58.614Z,43.35
2018-11-26T05:03:46.392Z,44.93
2018-11-26T05:04:34.086Z,45.10
2018-11-26T05:05:21.735Z,45.30
2018-11-26T05:06:09.873Z,45.63
2018-11-26T05:06:57.918Z,44.00
2018-11-26T05:07:45.409Z,47.83
2018-11-26T05:08:33.049Z,43.05
2018-11-26T05:09:20.602Z,46.10
2018-11-26T05:10:12.786Z,42.88
2018-11-26T05:11:00.658Z,44.88
2018-11-26T05:11:49.243Z,42.88
2018-11-26T05:12:37.152Z,42.80
2018-11-26T05:13:24.844Z,41.65
2018-11-26T05:14:12.952Z,43.85
2018-11-26T05:15:00.605Z,44.53
2018-11-26T05:15:48.194Z,43.28
2018-11-26T05:16:35.786Z,44.75
2018-11-26T05:17:23.301Z,44.15
2018-11-26T05:18:11.462Z,46.65
2018-11-26T05:18:59.231Z,45.40
2018-11-26T05:19:46.726Z,44.48
2018-11-26T05:20:34.302Z,43.52
2018-11-26T05:21:21.870Z,42.38
2018-11-26T05:22:10.045Z,47.55
2018-11-26T05:22:58.008Z,45.48
2018-11-26T05:23:45.980Z,44.03
2018-11-26T05:24:34.129Z,48.08
2018-11-26T05:25:21.902Z,46.00
2018-11-26T05:26:09.802Z,45.85
2018-11-26T05:26:57.402Z,45.50
2018-11-26T05:27:45.063Z,44.67
2018-11-26T05:28:32.906Z,42.88
2018-11-26T05:29:20.639Z,42.38
2018-11-26T05:30:13.197Z,45.33
2018-11-26T05:31:00.784Z,43.30
2018-11-26T05:31:48.585Z,46.95
2018-11-26T05:32:36.041Z,46.00
2018-11-26T05:33:24.134Z,45.67
2018-11-26T05:34:11.898Z,46.80
2018-11-26T05:35:04.591Z,41.75
2018-11-26T05:35:52.313Z,45.40
2018-11-26T05:36:40.019Z,47.62
2018-11-26T05:37:27.603Z,42.75
2018-11-26T05:38:15.126Z,42.60
2018-11-26T05:39:03.115Z,44.93
2018-11-26T05:39:50.923Z,43.60
2018-11-26T05:40:38.535Z,43.75
2018-11-26T05:41:26.094Z,43.20
2018-11-26T05:42:13.712Z,47.20
2018-11-26T05:43:01.224Z,45.28
2018-11-26T05:43:48.854Z,40.95
2018-11-26T05:44:36.974Z,43.00
2018-11-26T05:45:25.233Z,46.30
2018-11-26T05:46:12.965Z,44.08
2018-11-26T05:47:00.553Z,46.13
2018-11-26T05:47:48.204Z,47.13
2018-11-26T05:48:36.226Z,46.75
2018-11-26T05:49:23.854Z,41.98
2018-11-26T05:50:12.622Z,46.55
2018-11-26T05:51:00.474Z,45.15
2018-11-26T05:51:48.088Z,44.25
2018-11-26T05:52:36.335Z,41.05
2018-11-26T05:53:24.086Z,45.65
2018-11-26T05:54:11.813Z,45.50
2018-11-26T05:54:59.394Z,44.60
2018-11-26T05:55:47.487Z,44.83
2018-11-26T05:56:35.860Z,47.38
2018-11-26T05:57:23.579Z,44.75
2018-11-26T05:58:11.771Z,48.58
2018-11-26T05:58:59.522Z,43.80
2018-11-26T05:59:47.101Z,44.98
2018-11-26T06:00:36.281Z,43.80
2018-11-26T06:01:24.188Z,43.23
2018-11-26T06:02:11.746Z,47.30
2018-11-26T06:02:59.479Z,43.30
2018-11-26T06:03:47.305Z,46.10
2018-11-26T06:04:35.194Z,42.53
2018-11-26T06:05:22.739Z,43.25
2018-11-26T06:06:10.421Z,44.00
2018-11-26T06:06:58.479Z,44.10
2018-11-26T06:07:46.259Z,43.38
2018-11-26T06:08:34.578Z,43.40
2018-11-26T06:09:22.726Z,42.73
2018-11-26T06:10:10.978Z,41.88
2018-11-26T06:10:58.864Z,42.45
2018-11-26T06:11:47.810Z,45.30
2018-11-26T06:12:36.516Z,42.23
2018-11-26T06:13:25.206Z,45.38
2018-11-26T06:14:13.058Z,40.50
2018-11-26T06:15:01.129Z,43.15
2018-11-26T06:15:49.013Z,43.73
2018-11-26T06:16:37.512Z,41.83
2018-11-26T06:17:25.234Z,40.83
2018-11-26T06:18:13.504Z,42.95
2018-11-26T06:19:01.129Z,44.03
2018-11-26T06:19:48.805Z,42.95
2018-11-26T06:20:36.477Z,44.95
2018-11-26T06:21:24.094Z,46.37
2018-11-26T06:22:11.936Z,40.98
2018-11-26T06:22:59.666Z,44.35
2018-11-26T06:23:47.935Z,43.52
2018-11-26T06:24:35.921Z,43.75
2018-11-26T06:25:23.831Z,39.53
2018-11-26T06:26:11.818Z,41.48
2018-11-26T06:26:59.366Z,44.33
2018-11-26T06:27:47.289Z,39.63
2018-11-26T06:28:35.224Z,44.13
2018-11-26T06:29:22.698Z,39.58
2018-11-26T06:30:12.417Z,42.73
2018-11-26T06:31:00.117Z,42.98
2018-11-26T06:31:48.290Z,39.60
2018-11-26T06:32:35.903Z,40.38
2018-11-26T06:33:23.511Z,41.90
2018-11-26T06:34:11.323Z,42.27
2018-11-26T06:34:59.310Z,40.50
2018-11-26T06:35:47.310Z,41.92
2018-11-26T06:36:35.379Z,43.15
2018-11-26T06:37:23.428Z,39.63
2018-11-26T06:38:10.840Z,40.30
2018-11-26T06:38:58.394Z,40.80
2018-11-26T06:39:46.792Z,42.08
2018-11-26T06:40:34.523Z,42.58
2018-11-26T06:41:22.237Z,40.88
2018-11-26T06:42:10.438Z,38.40
2018-11-26T06:42:58.682Z,41.60
2018-11-26T06:43:46.413Z,41.45
2018-11-26T06:44:34.503Z,41.90
2018-11-26T06:45:23.489Z,42.90
2018-11-26T06:46:11.219Z,42.62
2018-11-26T06:46:58.831Z,37.63
2018-11-26T06:47:46.935Z,37.25
2018-11-26T06:48:34.637Z,40.43
2018-11-26T06:49:22.203Z,41.42
2018-11-26T06:50:11.723Z,37.70
2018-11-26T06:50:59.210Z,40.20
2018-11-26T06:51:46.642Z,43.87
2018-11-26T06:52:34.852Z,42.60
2018-11-26T06:53:23.775Z,41.85
2018-11-26T06:54:11.622Z,40.88
2018-11-26T06:54:59.612Z,42.93
2018-11-26T06:55:47.167Z,41.33
2018-11-26T06:56:34.983Z,36.15
2018-11-26T06:57:22.952Z,40.28
2018-11-26T06:58:10.999Z,38.02
2018-11-26T06:58:58.589Z,41.77
2018-11-26T06:59:46.702Z,39.45
2018-11-26T07:00:35.842Z,39.95
2018-11-26T07:01:23.355Z,39.73
2018-11-26T07:02:10.774Z,36.98
2018-11-26T07:02:58.371Z,38.75
2018-11-26T07:03:46.726Z,39.45
2018-11-26T07:04:34.422Z,37.38
2018-11-26T07:05:23.108Z,37.78
2018-11-26T07:06:11.168Z,37.45
2018-11-26T07:06:58.943Z,40.80
2018-11-26T07:07:47.187Z,41.30
2018-11-26T07:08:35.169Z,38.30
2018-11-26T07:09:22.629Z,38.85
2018-11-26T07:10:11.166Z,38.00
2018-11-26T07:10:58.661Z,37.90
2018-11-26T07:11:46.700Z,38.65
2018-11-26T07:12:34.661Z,38.28
2018-11-26T07:13:22.418Z,39.78
2018-11-26T07:14:10.498Z,37.70
2018-11-26T07:14:58.118Z,41.00
2018-11-26T07:15:45.746Z,40.88
2018-11-26T07:16:33.550Z,40.43
2018-11-26T07:17:21.346Z,38.55
2018-11-26T07:18:09.461Z,41.95
2018-11-26T07:18:57.112Z,37.00
2018-11-26T07:19:44.668Z,39.42
2018-11-26T07:20:32.771Z,39.20
2018-11-26T07:21:20.798Z,41.40
2018-11-26T07:22:08.969Z,41.08
2018-11-26T07:22:56.943Z,38.35
2018-11-26T07:23:44.558Z,39.60
2018-11-26T07:24:32.174Z,38.53
2018-11-26T07:25:20.894Z,38.23
2018-11-26T07:26:08.278Z,40.05
2018-11-26T07:26:55.991Z,40.30
2018-11-26T07:27:45.150Z,40.40
2018-11-26T07:28:32.779Z,40.70
2018-11-26T07:29:24.304Z,38.42
2018-11-26T07:30:16.357Z,39.13
2018-11-26T07:31:04.390Z,37.60
2018-11-26T07:31:51.894Z,38.63
2018-11-26T07:32:39.752Z,40.45
2018-11-26T07:33:27.671Z,38.28
2018-11-26T07:34:15.829Z,39.85
2018-11-26T07:35:03.573Z,41.02
2018-11-26T07:35:51.397Z,40.15
2018-11-26T07:36:38.958Z,37.88
2018-11-26T07:37:26.654Z,37.40
2018-11-26T07:38:14.278Z,40.05
2018-11-26T07:39:03.139Z,39.35
2018-11-26T07:39:50.944Z,38.28
2018-11-26T07:40:38.991Z,38.60
2018-11-26T07:41:26.570Z,39.33
2018-11-26T07:42:14.134Z,35.38
2018-11-26T07:43:12.089Z,39.78
2018-11-26T07:43:59.915Z,39.05
2018-11-26T07:44:47.427Z,39.92
2018-11-26T07:45:35.647Z,37.83
2018-11-26T07:46:23.374Z,35.23
2018-11-26T07:47:11.097Z,36.73
2018-11-26T07:47:58.782Z,36.60
2018-11-26T07:48:46.824Z,37.58
2018-11-26T07:49:34.526Z,37.17
2018-11-26T07:50:22.017Z,39.60
2018-11-26T07:51:09.621Z,35.98
2018-11-26T07:51:57.918Z,34.25
2018-11-26T07:52:45.725Z,34.03
2018-11-26T07:53:33.833Z,38.55
2018-11-26T07:54:21.386Z,39.60
2018-11-26T07:55:14.031Z,39.70
2018-11-26T07:56:01.831Z,34.53
2018-11-26T07:56:49.334Z,34.33
2018-11-26T07:57:37.045Z,34.90
2018-11-26T07:58:24.535Z,37.63
2018-11-26T07:59:12.218Z,36.85
2018-11-26T08:00:00.008Z,37.15
2018-11-26T08:00:48.111Z,37.63
2018-11-26T08:01:35.942Z,37.70
2018-11-26T08:02:23.846Z,32.88
2018-11-26T08:03:11.827Z,35.70
2018-11-26T08:03:59.360Z,35.40
2018-11-26T08:04:47.689Z,35.98
2018-11-26T08:05:35.538Z,34.55
2018-11-26T08:06:23.158Z,37.63
2018-11-26T08:07:10.910Z,33.63
2018-11-26T08:07:58.405Z,35.23
2018-11-26T08:08:46.526Z,35.52
2018-11-26T08:09:34.651Z,36.40
2018-11-26T08:10:23.867Z,36.05
2018-11-26T08:11:11.941Z,37.83
2018-11-26T08:12:00.318Z,37.38
2018-11-26T08:12:49.413Z,38.58
2018-11-26T08:13:37.149Z,32.75
2018-11-26T08:14:25.222Z,35.85
2018-11-26T08:15:20.136Z,36.95
2018-11-26T08:16:08.118Z,36.03
2018-11-26T08:16:56.003Z,36.38
2018-11-26T08:17:43.889Z,38.02
2018-11-26T08:18:32.933Z,37.15
2018-11-26T08:19:20.865Z,35.85
2018-11-26T08:20:09.378Z,34.92
2018-11-26T08:20:57.288Z,35.40
2018-11-26T08:21:46.203Z,37.35
2018-11-26T08:22:33.817Z,37.03
2018-11-26T08:23:21.381Z,36.53
2018-11-26T08:24:09.375Z,35.38
2018-11-26T08:24:57.337Z,35.88
2018-11-26T08:25:45.532Z,34.27
2018-11-26T08:26:33.641Z,36.33
2018-11-26T08:27:21.841Z,35.52
2018-11-26T08:28:09.722Z,34.20
2018-11-26T08:28:57.957Z,35.10
2018-11-26T08:29:45.494Z,37.73
2018-11-26T08:30:33.370Z,38.10
2018-11-26T08:31:21.662Z,37.10
2018-11-26T08:32:09.798Z,37.13
2018-11-26T08:32:58.353Z,35.17
2018-11-26T08:33:46.226Z,37.38
2018-11-26T08:34:34.283Z,36.90
2018-11-26T08:35:21.775Z,38.80
2018-11-26T08:36:15.787Z,32.17
2018-11-26T08:37:32.938Z,36.98
2018-11-26T08:38:24.499Z,35.90
2018-11-26T08:39:26.561Z,34.90
2018-11-26T08:40:32.086Z,34.25
2018-11-26T08:41:35.824Z,35.60
2018-11-26T08:42:45.413Z,38.48
2018-11-26T08:43:44.109Z,36.17
2018-11-26T08:44:45.130Z,34.30
2018-11-26T08:45:50.669Z,34.23
2018-11-26T08:46:57.224Z,34.23
2018-11-26T08:47:55.471Z,32.60
2018-11-26T08:49:01.838Z,39.48
2018-11-26T08:49:49.682Z,37.33
2018-11-26T08:50:37.192Z,35.45
2018-11-26T08:51:24.785Z,34.43
2018-11-26T08:52:12.807Z,36.63
2018-11-26T08:53:00.842Z,32.90
2018-11-26T08:53:49.036Z,35.08
2018-11-26T08:54:37.006Z,32.80
2018-11-26T08:55:24.789Z,35.60
2018-11-26T08:56:12.676Z,35.33
2018-11-26T08:57:00.363Z,33.80
2018-11-26T08:57:47.971Z,36.05
2018-11-26T08:58:36.784Z,35.45
2018-11-26T08:59:24.861Z,35.48
2018-11-26T09:00:12.870Z,37.25
2018-11-26T09:01:04.934Z,36.65
2018-11-26T09:02:02.466Z,38.40
2018-11-26T09:03:07.809Z,31.65
2018-11-26T09:04:05.006Z,34.13
2018-11-26T09:05:15.999Z,34.70
2018-11-26T09:06:04.694Z,34.20
2018-11-26T09:06:52.305Z,35.03
2018-11-26T09:07:40.055Z,34.20
2018-11-26T09:08:27.727Z,34.53
2018-11-26T09:09:15.749Z,37.85
2018-11-26T09:10:04.198Z,36.30
2018-11-26T09:10:52.329Z,37.10
2018-11-26T09:11:40.263Z,37.17
2018-11-26T09:12:28.098Z,33.35
2018-11-26T09:13:15.745Z,34.35
2018-11-26T09:14:03.775Z,36.23
2018-11-26T09:14:51.480Z,37.58
2018-11-26T09:15:39.351Z,35.00
2018-11-26T09:16:26.922Z,37.70
2018-11-26T09:17:15.038Z,40.45
2018-11-26T09:18:02.680Z,37.23
2018-11-26T09:18:51.040Z,41.53
2018-11-26T09:19:38.851Z,37.83
2018-11-26T09:20:26.772Z,36.33
2018-11-26T09:21:14.721Z,37.45
2018-11-26T09:22:02.475Z,35.98
2018-11-26T09:22:50.382Z,36.25
2018-11-26T09:23:38.664Z,36.45
2018-11-26T09:24:26.811Z,36.80
2018-11-26T09:25:14.654Z,36.68
2018-11-26T09:26:02.709Z,37.73
2018-11-26T09:26:50.372Z,38.65
2018-11-26T09:27:38.591Z,35.60
2018-11-26T09:28:26.597Z,38.63
2018-11-26T09:29:14.010Z,36.65
2018-11-26T09:30:01.972Z,35.40
2018-11-26T09:30:50.047Z,34.48
2018-11-26T09:31:38.095Z,38.20
2018-11-26T09:32:25.586Z,37.30
2018-11-26T09:33:13.247Z,37.03
2018-11-26T09:34:01.326Z,38.63
2018-11-26T09:34:49.112Z,36.50
2018-11-26T09:35:37.369Z,38.10
2018-11-26T09:36:25.094Z,37.23
2018-11-26T09:37:13.910Z,39.23
2018-11-26T09:38:01.599Z,36.83
2018-11-26T09:38:49.226Z,35.55
2018-11-26T09:39:36.835Z,36.30
2018-11-26T09:40:24.925Z,36.80
2018-11-26T09:41:12.862Z,33.83
2018-11-26T09:42:00.539Z,36.13
2018-11-26T09:42:48.237Z,34.48
2018-11-26T09:43:36.497Z,35.13
2018-11-26T09:44:24.689Z,36.60
2018-11-26T09:45:14.158Z,35.85
2018-11-26T09:46:02.370Z,37.35
2018-11-26T09:46:50.893Z,37.13
2018-11-26T09:47:38.870Z,39.05
2018-11-26T09:48:26.434Z,35.48
2018-11-26T09:49:14.122Z,38.48
2018-11-26T09:50:01.789Z,33.00
2018-11-26T09:50:49.866Z,36.40
2018-11-26T09:51:42.257Z,37.73
2018-11-26T09:52:26.258Z,33.50
2018-11-26T09:53:14.291Z,34.78
2018-11-26T09:54:02.050Z,32.45
2018-11-26T09:54:50.086Z,33.73
2018-11-26T09:55:37.805Z,34.08
2018-11-26T09:56:25.551Z,32.70
2018-11-26T09:57:13.245Z,34.67
2018-11-26T09:58:01.117Z,33.20
2018-11-26T09:58:49.217Z,34.98
2018-11-26T09:59:37.004Z,32.95
2018-11-26T10:00:24.730Z,34.50
2018-11-26T10:01:13.340Z,32.48
2018-11-26T10:02:01.420Z,33.38
2018-11-26T10:02:50.197Z,32.93
2018-11-26T10:03:38.370Z,31.77
2018-11-26T10:04:26.418Z,31.95
2018-11-26T10:05:15.698Z,33.53
2018-11-26T10:06:03.604Z,32.85
2018-11-26T10:06:51.961Z,33.35
2018-11-26T10:07:39.903Z,34.20
2018-11-26T10:08:27.900Z,35.88
2018-11-26T10:09:15.774Z,33.73
2018-11-26T10:10:03.427Z,32.53
2018-11-26T10:10:51.429Z,31.93
2018-11-26T10:11:39.204Z,34.18
2018-11-26T10:12:27.233Z,32.42
2018-11-26T10:13:14.943Z,32.78
2018-11-26T10:14:02.660Z,33.92
2018-11-26T10:14:50.923Z,32.23
2018-11-26T10:15:38.777Z,32.70
2018-11-26T10:16:27.077Z,34.80
2018-11-26T10:17:15.076Z,31.30
2018-11-26T10:18:03.248Z,34.08
2018-11-26T10:18:50.942Z,32.60
2018-11-26T10:19:38.731Z,29.45
2018-11-26T10:20:27.072Z,30.68
2018-11-26T10:21:15.233Z,33.02
2018-11-26T10:22:03.319Z,31.25
2018-11-26T10:22:51.790Z,34.60
2018-11-26T10:23:39.597Z,31.87